Limassol, Cyprus
Current Conditions -  °F | °C
As of 4:50 PM on Tuesday 27 Jan 2015 (Local Time) from LCRA Reporting Station
Broken Clouds Broken Clouds  
Wind Chill: 61°   Ceiling: 25000
Heat Index: 61°   Visibility: 6mi
Dew Point: 52°   Wind: 8mph
Humidity: 72%   Direction: 110°ESE
Pressure: 29.97"   Gusts: NA
Location:  34.76°N, 32.95°E
Report Text: LCRA 271350Z 11007KT 9999 FEW025 BKN250 16/11 Q1015 NOSIG
Loading
Personal Weather Stations






























Interactive Weather Map New forecast layout! Learn more

10-Day Weather Forecast

Advertisements
Track Severe Weather on mobile